WetterOnline ( http://www.wetteronline.de )

Wetter aktuell Rostock

Aktuelles Wetter: Rostock-Warnemünde (10m)

6-stündlich | Neueste Meldungen
Ortszeit Temperatur Wetter
Fr, 14.12. 13:00 1.8° C bedeckt
Fr, 14.12. 7:00 1.6° C bedeckt
Fr, 14.12. 1:00 1.7° C bewölkt
Do, 13.12. 19:00 2.4° C bedeckt
Do, 13.12. 13:00 3.3° C bedeckt
Do, 13.12. 7:00 3.2° C bedeckt
Do, 13.12. 1:00 3.1° C Sprühregen
Mi, 12.12. 19:00 3.5° C wolkig
Ortszeit Temperatur Wetter
Fr, 14.12. 17:30 0.6° C bedeckt
Fr, 14.12. 17:20 0.6° C bedeckt
Fr, 14.12. 17:10 0.6° C bedeckt
Fr, 14.12. 17:00 0.8° C bedeckt
Fr, 14.12. 16:50 0.8° C bedeckt
Fr, 14.12. 16:40 0.9° C bedeckt
Fr, 14.12. 16:30 0.9° C bedeckt
Fr, 14.12. 16:00 1.1° C bedeckt
Fr, 14.12. 15:30 1.1° C bedeckt
Fr, 14.12. 15:00 1.3° C bedeckt
Fr, 14.12. 14:30 1.5° C bedeckt
Ortszeit Relative Feuchte Sichtweite
Fr, 14.12. 13:00 73% 30 km
Fr, 14.12. 7:00 88% 23 km
Fr, 14.12. 1:00 90% 30 km
Do, 13.12. 19:00 89% 45 km
Do, 13.12. 13:00 89% -
Do, 13.12. 7:00 84% -
Do, 13.12. 1:00 81% -
Mi, 12.12. 19:00 91% 45 km
Ortszeit Relative Feuchte Sichtweite
Fr, 14.12. 17:30 86% 10 km
Fr, 14.12. 17:20 86% -
Fr, 14.12. 17:10 86% -
Fr, 14.12. 17:00 85% 11 km
Fr, 14.12. 16:50 85% -
Fr, 14.12. 16:40 86% -
Fr, 14.12. 16:30 85% 12 km
Fr, 14.12. 16:00 82% 15 km
Fr, 14.12. 15:30 80% 21 km
Fr, 14.12. 15:00 79% 28 km
Fr, 14.12. 14:30 76% 30 km
Ortszeit Niederschlagsmenge Niederschlagsart
Fr, 14.12. 13:00 0.1 l/m2 in 6 Std. Schnee, Regen
Fr, 14.12. 7:00 0.0 l/m2 in 12 Std. -
Fr, 14.12. 1:00 0.0 l/m2 in 6 Std. -
Do, 13.12. 19:00 0.1 l/m2 in 12 Std. Sprühregen
Do, 13.12. 13:00 0.1 l/m2 in 6 Std. -
Do, 13.12. 7:00 0.1 l/m2 in 12 Std. -
Do, 13.12. 1:00 0.1 l/m2 in 6 Std. -
Mi, 12.12. 19:00 0.3 l/m2 in 12 Std. Regen
Ortszeit Niederschlagsmenge Niederschlagsart
Fr, 14.12. 17:30 0.0 l/m2 in 1 Std. -
Fr, 14.12. 17:20 keine Meldung -
Fr, 14.12. 17:10 keine Meldung -
Fr, 14.12. 17:00 0.0 l/m2 in 1 Std. -
Fr, 14.12. 16:50 keine Meldung -
Fr, 14.12. 16:40 keine Meldung -
Fr, 14.12. 16:30 0.0 l/m2 in 1 Std. -
Fr, 14.12. 16:00 0.0 l/m2 in 1 Std. Schnee, Regen
Fr, 14.12. 15:30 0.0 l/m2 in 1 Std. -
Fr, 14.12. 15:00 0.0 l/m2 in 1 Std. -
Fr, 14.12. 14:30 0.0 l/m2 in 1 Std. -
Ortszeit Stärke Spitze Richtung
km/h Bft. km/h Grad Sektor
Fr, 14.12. 13:00 9 2 22 80° O
Fr, 14.12. 7:00 6 1 15 140° SO
Fr, 14.12. 1:00 6 1 24 90° O
Do, 13.12. 19:00 7 2 25 70° O
Do, 13.12. 13:00 9 2 24 80° O
Do, 13.12. 7:00 11 2 24 50° NO
Do, 13.12. 1:00 7 2 32 80° O
Mi, 12.12. 19:00 7 2 43 60° NO
Ortszeit Stärke Spitze Richtung
km/h Bft. km/h Grad Sektor
Fr, 14.12. 17:30 13 3 20 110° O
Fr, 14.12. 17:20 13 3 - 110° O
Fr, 14.12. 17:10 9 2 - 110° O
Fr, 14.12. 17:00 11 2 18 110° O
Fr, 14.12. 16:50 11 2 - 110° O
Fr, 14.12. 16:40 9 2 - 110° O
Fr, 14.12. 16:30 11 2 19 100° O
Fr, 14.12. 16:00 11 2 22 110° O
Fr, 14.12. 15:30 11 2 22 100° O
Fr, 14.12. 15:00 11 2 18 100° O
Fr, 14.12. 14:30 9 2 19 80° O
Ortszeit Untergrenze Bedeckung Gattung
total tief tief mittel hoch
Fr, 14.12. 13:00 870 m 8/8 8/8 - - -
Fr, 14.12. 7:00 1380 m 8/8 8/8 - - -
Fr, 14.12. 1:00 1080 m 7/8 7/8 - - -
Do, 13.12. 19:00 870 m 8/8 8/8 - - -
Do, 13.12. 13:00 1170 m 8/8 8/8 - - -
Do, 13.12. 7:00 510 m 8/8 8/8 - - -
Do, 13.12. 1:00 540 m 6/8 6/8 - - -
Mi, 12.12. 19:00 540 m 5/8 5/8 - - -
Ortszeit Bedeckungsgrad in Achtel und Wolkenuntergrenze
Fr, 14.12. 17:30 8(1020m)
Fr, 14.12. 17:20 8(1020m)
Fr, 14.12. 17:10 8(1050m)
Fr, 14.12. 17:00 1(270m) 8(1080m)
Fr, 14.12. 16:50 1(270m) 8(1080m)
Fr, 14.12. 16:40 1(300m) 8(1080m)
Fr, 14.12. 16:30 8(1110m)
Fr, 14.12. 16:00 8(1200m)
Fr, 14.12. 15:30 8(1140m)
Fr, 14.12. 15:00 8(1080m)
Fr, 14.12. 14:30 8(1140m)
Ortszeit Luftdruck NN (hPa) Tendenz (hPa in 3 Std.)
Fr, 14.12. 13:00 1028 + 0,1
Fr, 14.12. 7:00 1026 + 0,1
Fr, 14.12. 1:00 1026 0,0
Do, 13.12. 19:00 1026 0,0
Do, 13.12. 13:00 1026 - 0,6
Do, 13.12. 7:00 1027 - 1,1
Do, 13.12. 1:00 1028 - 0,1
Mi, 12.12. 19:00 1028 + 0,6
Ortszeit Luftdruck NN (hPa) Tendenz (hPa in 3 Std.)
Fr, 14.12. 17:30 1029 + 1,1
Fr, 14.12. 17:20 1029 keine Meldung
Fr, 14.12. 17:10 1029 keine Meldung
Fr, 14.12. 17:00 1029 + 0,9
Fr, 14.12. 16:50 1029 keine Meldung
Fr, 14.12. 16:40 1029 keine Meldung
Fr, 14.12. 16:30 1029 + 1,0
Fr, 14.12. 16:00 1028 + 0,7
Fr, 14.12. 15:30 1028 + 0,2
Fr, 14.12. 15:00 1028 - 0,2
Fr, 14.12. 14:30 1028 - 0,1
Ortszeit Schneehöhe (cm)
Fr, 14.12. 13:00 0
Fr, 14.12. 7:00 0
Fr, 14.12. 1:00 0
Do, 13.12. 19:00 0
Do, 13.12. 13:00 0
Do, 13.12. 7:00 0
Do, 13.12. 1:00 0
Mi, 12.12. 19:00 0
Ortszeit Schneehöhe (cm)
Fr, 14.12. 17:30 0
Fr, 14.12. 17:20 0
Fr, 14.12. 17:10 0
Fr, 14.12. 17:00 0
Fr, 14.12. 16:50 0
Fr, 14.12. 16:40 0
Fr, 14.12. 16:30 0
Fr, 14.12. 16:00 0
Fr, 14.12. 15:30 0
Fr, 14.12. 15:00 0
Fr, 14.12. 14:30 0
Link zu dieser Seite / Seite empfehlen

Das Wetter in ...